.
WxDataArchive / Data Records for 2012-06-10
2012-06-09 June 2012 2012-06-11

Data Records for Sunday, 10 June 2012

Time	Temp	Chill	HIndex	Humid	Dewpt	 Wind 	HiWind	WindDir	Rain 	Barom 
-----	----	-----	------	-----	-----	------	------	-------	-----	----- 
00:00	69.8	69.8	69.8	48	49.2	0	0	---	0.00	29.929 
00:05	69.6	69.6	69.6	49	49.6	0	0	---	0.00	29.929 
00:10	69.4	69.4	69.4	49	49.4	0	0	---	0.00	29.929 
00:15	69.3	69.3	69.3	49	49.3	0	0	---	0.00	29.930 
00:20	69.3	69.3	69.3	49	49.3	0	0	---	0.00	29.930 
00:25	69.1	69.1	69.1	50	49.7	0	0	---	0.00	29.930 
00:30	69.1	69.1	69.1	50	49.7	0	0	---	0.00	29.933 
00:35	69.1	69.1	69.1	50	49.7	0	0	---	0.00	29.933 
00:40	68.9	68.9	68.9	50	49.5	0	0	---	0.00	29.933 
00:45	68.8	68.8	68.8	50	49.4	0	0	---	0.00	29.935 
00:50	68.6	68.6	68.6	50	49.2	0	0	---	0.00	29.935 
00:55	68.4	68.4	68.4	52	50.1	0	0	---	0.00	29.935 
01:00	68.3	68.3	68.3	52	50.0	0	0	---	0.00	29.936 
01:05	68.1	68.1	68.1	52	49.8	0	0	---	0.00	29.936 
01:10	67.9	67.9	67.9	52	49.6	0	0	---	0.00	29.936 
01:15	67.8	67.8	67.8	53	50.0	0	0	---	0.00	29.942 
01:20	67.8	67.8	67.8	53	50.0	0	0	---	0.00	29.942 
01:25	67.6	67.6	67.6	54	50.4	0	0	---	0.00	29.942 
01:30	67.6	67.6	67.6	53	49.9	0	0	---	0.00	29.942 
01:35	67.4	67.4	67.4	53	49.7	0	0	---	0.00	29.942 
01:40	67.4	67.4	67.4	54	50.2	0	0	---	0.00	29.942 
01:45	67.3	67.3	67.3	54	50.1	0	0	---	0.00	29.944 
01:50	67.1	67.1	67.1	53	49.4	0	0	---	0.00	29.944 
01:55	66.9	66.9	66.9	54	49.7	0	0	---	0.00	29.944 
02:00	66.8	66.8	66.8	54	49.6	0	0	---	0.00	29.943 
02:05	66.4	66.4	66.4	55	49.7	0	0	---	0.00	29.943 
02:10	66.3	66.3	66.3	55	49.6	0	0	---	0.00	29.943 
02:15	66.1	66.1	66.1	55	49.5	0	0	---	0.00	29.943 
02:20	66.0	66.0	66.0	56	49.8	0	0	---	0.00	29.943 
02:25	65.8	65.8	65.8	55	49.2	0	0	---	0.00	29.943 
02:30	65.8	65.8	65.8	56	49.7	0	0	---	0.00	29.941 
02:35	65.6	65.6	65.6	56	49.5	0	0	---	0.00	29.941 
02:40	65.6	65.6	65.6	56	49.5	0	0	---	0.00	29.941 
02:45	65.5	65.5	65.5	56	49.4	0	0	---	0.00	29.945 
02:50	65.3	65.3	65.3	57	49.7	0	0	---	0.00	29.945 
02:55	65.0	65.0	65.0	57	49.4	0	0	---	0.00	29.945 
03:00	64.7	64.7	64.7	58	49.6	0	0	---	0.00	29.947 
03:05	64.3	64.3	64.3	58	49.2	0	0	---	0.00	29.947 
03:10	64.2	64.2	64.2	58	49.1	0	0	---	0.00	29.947 
03:15	63.9	63.9	63.9	59	49.3	0	0	---	0.00	29.946 
03:20	63.4	63.4	63.4	60	49.3	0	0	---	0.00	29.946 
03:25	63.1	63.1	63.1	61	49.4	0	0	---	0.00	29.946 
03:30	62.9	62.9	62.9	61	49.2	0	0	---	0.00	29.948 
03:35	62.6	62.6	62.6	62	49.4	0	0	---	0.00	29.948 
03:40	62.3	62.3	62.3	63	49.5	0	0	---	0.00	29.948 
03:45	62.1	62.1	62.1	64	49.8	0	0	---	0.00	29.951 
03:50	62.0	62.0	62.0	65	50.1	0	0	---	0.00	29.951 
03:55	61.8	61.8	61.8	65	49.9	0	0	---	0.00	29.951 
04:00	61.8	61.8	61.8	67	50.7	0	0	---	0.00	29.951 
04:05	61.6	61.6	61.6	67	50.5	0	0	---	0.00	29.951 
04:10	61.3	61.3	61.3	67	50.2	0	0	---	0.00	29.951 
04:15	61.2	61.2	61.2	68	50.5	0	0	---	0.00	29.954 
04:20	61.0	61.0	61.0	68	50.4	0	0	---	0.00	29.954 
04:25	60.9	60.9	60.9	68	50.3	0	0	---	0.00	29.954 
04:30	60.9	60.9	60.9	69	50.7	0	0	---	0.00	29.954 
04:35	60.7	60.7	60.7	69	50.5	0	0	---	0.00	29.954 
04:40	60.5	60.5	60.5	69	50.3	0	0	---	0.00	29.954 
04:45	60.4	60.4	60.4	70	50.6	0	0	---	0.00	29.962 
04:50	60.2	60.2	60.2	70	50.4	0	0	---	0.00	29.962 
04:55	60.1	60.1	60.1	71	50.7	0	0	---	0.00	29.962 
05:00	59.9	59.9	59.9	71	50.5	0	0	---	0.00	29.966 
05:05	59.9	59.9	59.9	72	50.8	0	0	---	0.00	29.966 
05:10	59.8	59.8	59.8	74	51.5	0	0	---	0.00	29.966 
05:15	59.8	59.8	59.8	76	52.2	0	0	---	0.00	29.966 
05:20	59.8	59.8	59.8	77	52.6	0	0	---	0.00	29.966 
05:25	59.6	59.6	59.6	77	52.4	0	0	---	0.00	29.966 
05:30	59.6	59.6	59.6	78	52.7	0	0	---	0.00	29.972 
05:35	59.5	59.5	59.5	78	52.6	0	0	---	0.00	29.972 
05:40	59.3	59.3	59.3	78	52.4	0	0	---	0.00	29.972 
05:45	59.2	59.2	59.2	78	52.3	0	0	---	0.00	29.976 
05:50	59.2	59.2	59.2	78	52.3	0	0	---	0.00	29.976 
05:55	59.0	59.0	59.0	79	52.5	0	0	---	0.00	29.976 
06:00	58.9	58.9	58.9	78	52.0	0	0	---	0.00	29.982 
06:05	58.9	58.9	58.9	78	52.0	0	0	---	0.00	29.982 
06:10	58.7	58.7	58.7	79	52.2	0	0	---	0.00	29.982 
06:15	58.7	58.7	58.7	79	52.2	0	0	---	0.00	29.982 
06:20	58.7	58.7	58.7	79	52.2	0	0	---	0.00	29.982 
06:25	58.6	58.6	58.6	79	52.1	0	0	---	0.00	29.982 
06:30	58.6	58.6	58.6	79	52.1	0	0	---	0.00	29.983 
06:35	58.6	58.6	58.6	79	52.1	0	0	---	0.00	29.983 
06:40	58.6	58.6	58.6	79	52.1	0	0	---	0.00	29.983 
06:45	58.7	58.7	58.7	80	52.5	0	0	---	0.00	29.986 
06:50	58.7	58.7	58.7	80	52.5	0	0	---	0.00	29.986 
06:55	58.9	58.9	58.9	80	52.7	0	0	---	0.00	29.986 
07:00	59.2	59.2	59.2	81	53.4	0	0	---	0.00	29.996 
07:05	59.5	59.5	59.5	81	53.7	0	0	---	0.00	29.996 
07:10	59.6	59.6	59.6	81	53.8	0	0	---	0.00	29.996 
07:15	59.9	59.9	59.9	81	54.1	0	0	---	0.00	29.999 
07:20	60.5	60.5	60.5	81	54.6	0	0	---	0.00	29.999 
07:25	61.2	61.2	61.2	80	55.0	0	0	---	0.00	29.999 
07:30	62.0	62.0	62.0	78	55.1	0	0	---	0.00	30.003 
07:35	63.2	63.2	63.2	72	54.0	0	0	---	0.00	30.003 
07:40	64.8	64.8	64.8	66	53.2	0	0	---	0.00	30.003 
07:45	66.4	66.4	66.4	63	53.4	0	0	---	0.00	30.002 
07:50	67.9	67.9	67.9	61	53.9	0	0	---	0.00	30.002 
07:55	69.3	69.3	69.3	59	54.3	0	0	---	0.00	30.002 
08:00	70.4	70.4	70.4	58	54.9	0	0	---	0.00	30.002 
08:05	71.5	71.5	71.5	56	55.0	0	0	---	0.00	30.002 
08:10	72.3	72.3	72.3	55	55.2	0	2	270	0.00	30.002 
08:15	73.0	73.0	73.0	54	55.4	0	1	270	0.00	30.005 
08:20	73.7	73.7	73.7	53	55.5	0	1	270	0.00	30.005 
08:25	74.4	74.4	74.4	52	55.6	0	1	270	0.00	30.005 
08:30	75.1	75.1	77.7	51	55.7	0	2	270	0.00	30.004 
08:35	75.6	75.6	77.9	51	56.2	0	2	270	0.00	30.004 
08:40	76.1	76.1	78.1	49	55.5	0	1	270	0.00	30.004 
08:45	76.8	76.8	78.4	48	55.6	0	2	270	0.00	30.000 
08:50	77.4	77.4	78.8	48	56.1	0	2	270	0.00	30.000 
08:55	77.9	77.9	79.1	48	56.6	0	1	270	0.00	30.000 
09:00	78.5	78.5	79.4	47	56.6	0	3	270	0.00	30.003 
09:05	78.6	78.6	79.4	46	56.1	1	3	270	0.00	30.003 
09:10	79.2	79.2	79.8	45	56.0	0	2	270	0.00	30.003 
09:15	79.8	79.8	80.3	46	57.2	0	1	270	0.00	30.001 
09:20	80.3	80.3	80.5	44	56.4	0	2	270	0.00	30.001 
09:25	80.9	80.9	81.0	44	56.9	0	2	270	0.00	30.001 
09:30	81.4	81.4	81.3	43	56.7	0	2	270	0.00	29.997 
09:35	81.8	81.8	81.5	42	56.4	0	2	270	0.00	29.997 
09:40	82.2	82.2	81.7	41	56.1	1	2	270	0.00	29.997 
09:45	82.8	82.8	82.3	41	56.7	0	2	248	0.00	29.990 
09:50	83.0	83.0	82.3	40	56.2	2	4	90	0.00	29.990 
09:55	83.0	83.0	82.3	40	56.2	0	2	90	0.00	29.990 
10:00	83.4	83.4	82.7	40	56.5	1	3	270	0.00	29.996 
10:05	84.0	84.0	83.3	40	57.0	0	2	270	0.00	29.996 
10:10	84.5	84.5	83.6	39	56.8	1	3	270	0.00	29.996 
10:15	84.1	84.1	83.2	39	56.4	1	3	270	0.00	29.997 
10:20	83.8	83.8	83.2	41	57.6	1	2	270	0.00	29.997 
10:25	84.1	84.1	83.6	41	57.8	1	3	270	0.00	29.997 
10:30	84.7	84.7	83.8	39	57.0	1	2	0	0.00	29.996 
10:35	84.5	84.5	83.8	40	57.5	0	3	292	0.00	29.996 
10:40	85.1	85.1	84.3	39	57.3	1	2	292	0.00	29.996 
10:45	85.7	85.7	84.9	39	57.9	1	3	292	0.00	30.001 
10:50	85.7	85.7	84.9	39	57.9	1	3	292	0.00	30.001 
10:55	85.5	85.5	84.7	39	57.7	1	2	292	0.00	30.001 
11:00	86.1	86.1	85.4	39	58.2	0	3	292	0.00	29.999 
11:05	87.0	87.0	85.8	36	56.8	0	4	22	0.00	29.999 
11:10	87.4	87.4	86.7	38	58.6	0	2	22	0.00	29.999 
11:15	88.0	88.0	86.9	36	57.7	1	4	112	0.00	29.998 
11:20	88.4	88.4	87.2	35	57.2	1	3	112	0.00	29.998 
11:25	88.6	88.6	87.4	35	57.4	1	4	112	0.00	29.998 
11:30	88.6	88.6	87.9	37	59.0	0	2	112	0.00	30.000 
11:35	88.4	88.4	86.9	34	56.4	2	4	112	0.00	30.000 
11:40	88.2	88.2	86.9	35	57.0	0	2	112	0.00	30.000 
11:45	88.6	88.6	86.6	31	54.1	1	4	112	0.00	30.000 
11:50	88.8	88.8	86.8	31	54.2	1	3	112	0.00	30.000 
11:55	87.2	87.2	85.2	32	53.7	2	4	270	0.00	30.000 
12:00	85.9	85.9	84.1	33	53.4	1	3	270	0.00	30.006 
12:05	85.9	85.9	84.2	34	54.2	1	3	292	0.00	30.006 
12:10	86.5	86.5	84.7	33	53.9	1	2	292	0.00	30.006 
12:15	87.2	87.2	85.4	33	54.6	0	2	292	0.00	30.008 
12:20	88.6	88.6	86.7	32	54.9	1	3	22	0.00	30.008 
12:25	89.9	89.9	88.0	31	55.2	1	3	45	0.00	30.008 
12:30	90.7	90.7	89.0	31	55.9	1	4	45	0.00	30.004 
12:35	90.5	90.5	88.3	29	53.9	1	3	292	0.00	30.004 
12:40	90.7	90.7	88.7	30	55.0	2	4	248	0.00	30.004 
12:45	90.7	90.7	88.5	29	54.0	1	4	90	0.00	30.005 
12:50	91.0	91.0	88.4	27	52.3	1	6	90	0.00	30.005 
12:55	91.0	91.0	88.4	27	52.3	1	4	90	0.00	30.005 
13:00	89.9	89.9	87.6	29	53.3	1	3	90	0.00	30.004 
13:05	88.8	88.8	86.6	30	53.3	1	2	90	0.00	30.004 
13:10	88.2	88.2	85.8	29	51.9	1	2	90	0.00	30.004 
13:15	87.4	87.4	85.0	29	51.2	1	3	90	0.00	29.997 
13:20	87.4	87.4	85.1	30	52.1	1	4	45	0.00	29.997 
13:25	88.2	88.2	85.9	30	52.8	2	4	248	0.00	29.997 
13:30	89.0	89.0	86.4	28	51.6	1	3	68	0.00	29.994 
13:35	90.1	90.1	87.8	29	53.5	1	3	112	0.00	29.994 
13:40	90.7	90.7	88.3	28	53.1	1	3	112	0.00	29.994 
13:45	91.2	91.2	89.1	29	54.5	1	3	112	0.00	29.988 
13:50	91.0	91.0	88.4	27	52.3	1	4	112	0.00	29.988 
13:55	90.5	90.5	88.1	28	52.9	1	4	112	0.00	29.988 
14:00	90.1	90.1	87.4	27	51.6	2	5	112	0.00	29.985 
14:05	89.5	89.5	86.8	27	51.1	2	5	90	0.00	29.985 
14:10	89.0	89.0	86.4	28	51.6	1	2	90	0.00	29.985 
14:15	88.6	88.6	86.2	29	52.2	1	3	90	0.00	29.979 
14:20	89.0	89.0	86.8	30	53.5	0	2	90	0.00	29.979 
14:25	90.1	90.1	87.4	27	51.6	1	4	112	0.00	29.979 
14:30	91.2	91.2	88.7	27	52.5	1	3	112	0.00	29.973 
14:35	91.2	91.2	88.7	27	52.5	1	3	315	0.00	29.973 
14:40	91.0	91.0	88.4	27	52.3	0	3	315	0.00	29.973 
14:45	91.2	91.2	88.7	27	52.5	2	6	338	0.00	29.968 
14:50	91.4	91.4	88.7	26	51.6	1	5	90	0.00	29.968 
14:55	91.0	91.0	88.2	26	51.3	1	3	112	0.00	29.968 
15:00	90.7	90.7	88.1	27	52.1	1	4	112	0.00	29.962 
15:05	91.4	91.4	88.5	25	50.6	1	4	112	0.00	29.962 
15:10	92.1	92.1	89.3	25	51.2	1	3	112	0.00	29.962 
15:15	92.7	92.7	90.0	25	51.7	1	3	90	0.00	29.960 
15:20	92.9	92.9	89.6	22	48.4	2	4	270	0.00	29.960 
15:25	92.9	92.9	89.6	22	48.4	1	3	45	0.00	29.960 
15:30	93.2	93.2	90.5	25	52.1	1	6	90	0.00	29.958 
15:35	93.4	93.4	90.5	24	51.2	1	3	90	0.00	29.958 
15:40	93.4	93.4	90.5	24	51.2	2	4	248	0.00	29.958 
15:45	93.4	93.4	90.3	23	50.0	2	6	90	0.00	29.955 
15:50	93.2	93.2	90.5	25	52.1	1	4	90	0.00	29.955 
15:55	92.9	92.9	90.2	25	51.8	2	5	68	0.00	29.955 
16:00	92.9	92.9	89.8	23	49.6	1	4	292	0.00	29.947 
16:05	92.5	92.5	89.5	24	50.4	2	7	112	0.00	29.947 
16:10	92.1	92.1	88.9	23	48.9	3	9	112	0.00	29.947 
16:15	92.3	92.3	89.3	24	50.2	1	3	315	0.00	29.949 
16:20	92.7	92.7	89.5	23	49.4	1	3	90	0.00	29.949 
16:25	91.8	91.8	88.7	24	49.8	2	6	135	0.00	29.949 
16:30	91.0	91.0	87.9	24	49.2	3	10	90	0.00	29.947 
16:35	90.7	90.7	87.6	24	48.9	2	5	68	0.00	29.947 
16:40	91.2	91.2	88.1	24	49.3	3	10	90	0.00	29.947 
16:45	91.6	91.6	88.3	23	48.5	2	5	90	0.00	29.946 
16:50	92.1	92.1	89.1	24	50.1	2	5	90	0.00	29.946 
16:55	92.3	92.3	88.9	22	47.9	2	6	112	0.00	29.946 
17:00	92.3	92.3	89.1	23	49.1	2	4	248	0.00	29.946 
17:05	92.3	92.3	88.7	21	46.7	2	5	90	0.00	29.946 
17:10	92.1	92.1	88.7	22	47.7	1	3	90	0.00	29.946 
17:15	92.1	92.1	88.9	23	48.9	1	5	90	0.00	29.944 
17:20	91.8	91.8	88.6	23	48.7	2	4	292	0.00	29.944 
17:25	91.8	91.8	88.6	23	48.7	2	4	68	0.00	29.944 
17:30	91.4	91.4	88.1	23	48.3	2	7	90	0.00	29.946 
17:35	91.0	91.0	87.7	23	48.0	1	3	68	0.00	29.946 
17:40	90.5	90.5	87.5	25	49.8	0	3	112	0.00	29.946 
17:45	90.1	90.1	86.9	24	48.4	2	4	90	0.00	29.942 
17:50	89.9	89.9	86.7	24	48.2	1	3	112	0.00	29.942 
17:55	90.1	90.1	86.9	24	48.4	1	3	112	0.00	29.942 
18:00	90.3	90.3	87.3	25	49.7	2	9	112	0.00	29.943 
18:05	90.3	90.3	87.1	24	48.6	2	5	112	0.00	29.943 
18:10	90.3	90.3	87.1	24	48.6	2	5	90	0.00	29.943 
18:15	90.1	90.1	87.1	25	49.5	1	3	112	0.00	29.937 
18:20	89.9	89.9	86.7	24	48.2	1	4	22	0.00	29.937 
18:25	89.9	89.9	86.9	25	49.3	2	6	112	0.00	29.937 
18:30	89.9	89.9	87.0	26	50.4	2	5	90	0.00	29.935 
18:35	89.9	89.9	86.7	24	48.2	1	4	112	0.00	29.935 
18:40	89.7	89.7	86.8	26	50.2	1	3	112	0.00	29.935 
18:45	89.5	89.5	86.6	26	50.0	2	5	112	0.00	29.933 
18:50	89.3	89.3	86.6	27	50.9	1	5	90	0.00	29.933 
18:55	88.8	88.8	86.1	27	50.5	1	3	90	0.00	29.933 
19:00	88.6	88.6	86.0	28	51.3	1	4	90	0.00	29.934 
19:05	88.4	88.4	85.7	27	50.1	2	4	90	0.00	29.934 
19:10	88.2	88.2	85.5	27	50.0	1	6	68	0.00	29.934 
19:15	88.0	88.0	85.4	28	50.8	1	4	90	0.00	29.924 
19:20	87.6	87.6	85.0	28	50.4	1	3	112	0.00	29.924 
19:25	87.6	87.6	85.0	28	50.4	1	4	112	0.00	29.924 
19:30	87.4	87.4	84.7	27	49.3	0	2	112	0.00	29.924 
19:35	87.4	87.4	84.8	28	50.3	1	3	22	0.00	29.924 
19:40	87.2	87.2	84.8	29	51.0	1	5	90	0.00	29.924 
19:45	87.0	87.0	84.7	30	51.8	0	3	112	0.00	29.927 
19:50	86.7	86.7	84.6	31	52.4	1	4	112	0.00	29.927 
19:55	86.5	86.5	84.4	31	52.2	1	3	112	0.00	29.927 
20:00	86.5	86.5	84.5	32	53.1	0	2	90	0.00	29.929 
20:05	86.3	86.3	84.2	31	52.1	1	4	90	0.00	29.929 
20:10	86.1	86.1	84.1	32	52.8	1	4	112	0.00	29.929 
20:15	85.9	85.9	84.2	34	54.2	1	4	338	0.00	29.921 
20:20	85.5	85.5	84.0	35	54.7	0	3	338	0.00	29.921 
20:25	85.3	85.3	83.8	35	54.5	0	1	338	0.00	29.921 
20:30	84.9	84.9	83.6	36	54.9	0	3	0	0.00	29.922 
20:35	84.7	84.7	83.4	36	54.8	1	2	112	0.00	29.922 
20:40	84.3	84.3	83.1	37	55.2	0	2	45	0.00	29.922 
20:45	84.1	84.1	82.9	37	55.0	0	1	45	0.00	29.928 
20:50	84.0	84.0	82.8	37	54.9	0	2	45	0.00	29.928 
20:55	83.6	83.6	82.5	37	54.5	0	2	248	0.00	29.928 
21:00	83.4	83.4	82.4	38	55.1	0	3	270	0.00	29.931 
21:05	83.2	83.2	82.3	38	54.9	0	3	112	0.00	29.931 
21:10	82.8	82.8	81.9	38	54.6	0	1	112	0.00	29.931 
21:15	82.6	82.6	81.8	39	55.1	0	1	112	0.00	29.928 
21:20	82.4	82.4	81.7	39	54.9	0	1	112	0.00	29.928 
21:25	82.0	82.0	81.3	39	54.6	0	1	112	0.00	29.928 
21:30	81.8	81.8	81.2	39	54.4	0	1	112	0.00	29.931 
21:35	81.6	81.6	81.0	39	54.2	0	3	112	0.00	29.931 
21:40	81.4	81.4	80.9	39	54.0	0	2	112	0.00	29.931 
21:45	81.2	81.2	80.8	40	54.6	0	2	112	0.00	29.933 
21:50	81.1	81.1	80.7	40	54.5	0	1	112	0.00	29.933 
21:55	80.9	80.9	80.6	40	54.3	0	1	112	0.00	29.933 
22:00	80.7	80.7	80.5	41	54.8	0	2	112	0.00	29.936 
22:05	80.3	80.3	80.3	42	55.1	0	1	112	0.00	29.936 
22:10	79.9	79.9	80.0	42	54.7	0	0	---	0.00	29.936 
22:15	79.6	79.6	79.9	43	55.1	0	0	---	0.00	29.936 
22:20	79.2	79.2	79.7	44	55.4	0	1	112	0.00	29.936 
22:25	78.6	78.6	79.4	45	55.5	0	0	---	0.00	29.936 
22:30	78.1	78.1	79.0	45	55.0	0	0	---	0.00	29.937 
22:35	77.7	77.7	78.8	45	54.6	0	1	112	0.00	29.937 
22:40	77.6	77.6	78.8	46	55.2	0	1	112	0.00	29.937 
22:45	77.6	77.6	78.8	46	55.2	0	1	112	0.00	29.936 
22:50	77.4	77.4	78.7	46	55.0	0	0	---	0.00	29.936 
22:55	77.4	77.4	78.7	46	55.0	0	0	---	0.00	29.936 
23:00	77.4	77.4	78.7	46	55.0	0	1	112	0.00	29.937 
23:05	77.4	77.4	78.7	46	55.0	0	2	112	0.00	29.937 
23:10	77.4	77.4	78.7	46	55.0	0	1	112	0.00	29.937 
23:15	77.6	77.6	78.8	46	55.2	0	2	112	0.00	29.935 
23:20	77.6	77.6	78.8	46	55.2	0	2	112	0.00	29.935 
23:25	77.6	77.6	78.8	46	55.2	0	1	112	0.00	29.935 
23:30	77.6	77.6	78.8	46	55.2	0	1	112	0.00	29.929 
23:35	77.4	77.4	78.7	46	55.0	0	1	112	0.00	29.929 
23:40	77.4	77.4	78.7	46	55.0	0	1	112	0.00	29.929 
23:45	77.2	77.2	78.6	46	54.8	0	2	112	0.00	29.925 
23:50	77.0	77.0	78.5	46	54.6	0	1	112	0.00	29.925 
23:55	76.8	76.8	78.4	47	55.0	0	1	112	0.00	29.925 

CoCoRaHS
IN-AL-39
A2 Web Hosting
Creative Commons License
GoDaddy
search engine by freefind advanced

loaded 2018-11-15 13:34:20 • last modified 2010-11-18 10:43:29
Privacy PolicyDisclaimer
• wx.awcolley.com is powered by PmWiki v.2002016 •
• all content (unless otherwise noted) © 2018 A W Colley